sensor_id;sensor_type;location;lat;lon;timestamp;P1;durP1;ratioP1;P2;durP2;ratioP2
10061;SDS011;5070;52.382;5.270;2023-07-31T00:01:04;4.28;;;1.48;;
10061;SDS011;5070;52.382;5.270;2023-07-31T00:03:32;3.00;;;2.05;;
10061;SDS011;5070;52.382;5.270;2023-07-31T00:06:00;1.70;;;0.90;;
10061;SDS011;5070;52.382;5.270;2023-07-31T00:08:29;2.28;;;1.40;;
10061;SDS011;5070;52.382;5.270;2023-07-31T00:10:57;2.10;;;1.23;;
10061;SDS011;5070;52.382;5.270;2023-07-31T00:13:25;4.20;;;1.40;;
10061;SDS011;5070;52.382;5.270;2023-07-31T00:15:53;2.00;;;1.30;;
10061;SDS011;5070;52.382;5.270;2023-07-31T00:18:22;4.35;;;1.25;;
10061;SDS011;5070;52.382;5.270;2023-07-31T00:20:49;1.70;;;0.80;;
10061;SDS011;5070;52.382;5.270;2023-07-31T00:23:17;3.72;;;1.15;;
10061;SDS011;5070;52.382;5.270;2023-07-31T00:25:47;3.25;;;1.77;;
10061;SDS011;5070;52.382;5.270;2023-07-31T00:28:15;2.45;;;1.20;;
10061;SDS011;5070;52.382;5.270;2023-07-31T00:30:43;3.85;;;1.55;;
10061;SDS011;5070;52.382;5.270;2023-07-31T00:33:11;3.72;;;1.50;;
10061;SDS011;5070;52.382;5.270;2023-07-31T00:35:39;2.13;;;1.23;;
10061;SDS011;5070;52.382;5.270;2023-07-31T00:38:07;3.00;;;1.55;;
10061;SDS011;5070;52.382;5.270;2023-07-31T00:40:35;3.38;;;1.77;;
10061;SDS011;5070;52.382;5.270;2023-07-31T00:43:05;2.53;;;1.20;;
10061;SDS011;5070;52.382;5.270;2023-07-31T00:45:34;2.65;;;1.23;;
10061;SDS011;5070;52.382;5.270;2023-07-31T00:48:02;2.88;;;1.70;;
10061;SDS011;5070;52.382;5.270;2023-07-31T00:50:33;2.72;;;2.17;;
10061;SDS011;5070;52.382;5.270;2023-07-31T00:53:02;2.30;;;1.65;;
10061;SDS011;5070;52.382;5.270;2023-07-31T00:55:32;1.90;;;1.30;;
10061;SDS011;5070;52.382;5.270;2023-07-31T00:58:00;2.33;;;1.73;;
10061;SDS011;5070;52.382;5.270;2023-07-31T01:00:30;2.50;;;1.27;;
10061;SDS011;5070;52.382;5.270;2023-07-31T01:02:58;4.40;;;1.77;;
10061;SDS011;5070;52.382;5.270;2023-07-31T01:05:29;1.92;;;1.20;;
10061;SDS011;5070;52.382;5.270;2023-07-31T01:08:07;4.22;;;1.50;;
10061;SDS011;5070;52.382;5.270;2023-07-31T01:10:41;1.90;;;1.10;;
10061;SDS011;5070;52.382;5.270;2023-07-31T01:13:17;3.53;;;1.90;;
10061;SDS011;5070;52.382;5.270;2023-07-31T01:15:47;3.88;;;1.60;;
10061;SDS011;5070;52.382;5.270;2023-07-31T01:18:15;2.60;;;1.13;;
10061;SDS011;5070;52.382;5.270;2023-07-31T01:20:43;2.80;;;1.83;;
10061;SDS011;5070;52.382;5.270;2023-07-31T01:23:49;2.50;;;1.30;;
10061;SDS011;5070;52.382;5.270;2023-07-31T01:26:30;5.22;;;1.40;;
10061;SDS011;5070;52.382;5.270;2023-07-31T01:29:01;2.05;;;1.40;;
10061;SDS011;5070;52.382;5.270;2023-07-31T01:31:36;3.00;;;1.42;;
10061;SDS011;5070;52.382;5.270;2023-07-31T01:34:10;4.40;;;2.05;;
10061;SDS011;5070;52.382;5.270;2023-07-31T01:36:40;2.80;;;1.77;;
10061;SDS011;5070;52.382;5.270;2023-07-31T01:39:10;2.80;;;1.60;;
10061;SDS011;5070;52.382;5.270;2023-07-31T01:41:39;3.88;;;1.92;;
10061;SDS011;5070;52.382;5.270;2023-07-31T01:44:07;3.05;;;1.90;;
10061;SDS011;5070;52.382;5.270;2023-07-31T01:46:35;3.05;;;1.92;;
10061;SDS011;5070;52.382;5.270;2023-07-31T01:49:05;2.25;;;1.65;;
10061;SDS011;5070;52.382;5.270;2023-07-31T01:51:33;3.35;;;2.22;;
10061;SDS011;5070;52.382;5.270;2023-07-31T01:54:01;5.25;;;2.00;;
10061;SDS011;5070;52.382;5.270;2023-07-31T01:56:29;2.20;;;1.50;;
10061;SDS011;5070;52.382;5.270;2023-07-31T01:58:59;3.45;;;1.60;;
10061;SDS011;5070;52.382;5.270;2023-07-31T02:01:27;5.63;;;2.15;;
10061;SDS011;5070;52.382;5.270;2023-07-31T02:03:55;7.50;;;2.67;;
10061;SDS011;5070;52.382;5.270;2023-07-31T02:06:24;2.70;;;2.40;;
10061;SDS011;5070;52.382;5.270;2023-07-31T02:08:52;3.40;;;1.75;;
10061;SDS011;5070;52.382;5.270;2023-07-31T02:11:20;5.60;;;2.63;;
10061;SDS011;5070;52.382;5.270;2023-07-31T02:13:48;3.25;;;1.55;;
10061;SDS011;5070;52.382;5.270;2023-07-31T02:16:18;4.15;;;1.42;;
10061;SDS011;5070;52.382;5.270;2023-07-31T02:18:46;3.92;;;2.90;;
10061;SDS011;5070;52.382;5.270;2023-07-31T02:21:14;7.40;;;3.15;;
10061;SDS011;5070;52.382;5.270;2023-07-31T02:23:42;10.73;;;2.13;;
10061;SDS011;5070;52.382;5.270;2023-07-31T02:26:10;2.35;;;1.88;;
10061;SDS011;5070;52.382;5.270;2023-07-31T02:28:38;3.10;;;2.28;;
10061;SDS011;5070;52.382;5.270;2023-07-31T02:31:09;5.43;;;2.72;;
10061;SDS011;5070;52.382;5.270;2023-07-31T02:33:40;5.97;;;1.85;;
10061;SDS011;5070;52.382;5.270;2023-07-31T02:36:09;3.78;;;2.03;;
10061;SDS011;5070;52.382;5.270;2023-07-31T02:38:37;5.65;;;2.22;;
10061;SDS011;5070;52.382;5.270;2023-07-31T02:41:05;6.47;;;2.33;;
10061;SDS011;5070;52.382;5.270;2023-07-31T02:43:33;4.10;;;2.55;;
10061;SDS011;5070;52.382;5.270;2023-07-31T02:46:01;4.30;;;3.42;;
10061;SDS011;5070;52.382;5.270;2023-07-31T02:48:29;6.95;;;2.75;;
10061;SDS011;5070;52.382;5.270;2023-07-31T02:50:59;2.97;;;1.80;;
10061;SDS011;5070;52.382;5.270;2023-07-31T02:53:27;7.20;;;2.90;;
10061;SDS011;5070;52.382;5.270;2023-07-31T02:55:55;8.63;;;2.20;;
10061;SDS011;5070;52.382;5.270;2023-07-31T02:58:23;5.22;;;4.07;;
10061;SDS011;5070;52.382;5.270;2023-07-31T03:00:51;4.95;;;3.00;;
10061;SDS011;5070;52.382;5.270;2023-07-31T03:03:19;6.70;;;3.67;;
10061;SDS011;5070;52.382;5.270;2023-07-31T03:05:48;2.88;;;2.08;;
10061;SDS011;5070;52.382;5.270;2023-07-31T03:08:17;3.38;;;2.85;;
10061;SDS011;5070;52.382;5.270;2023-07-31T03:10:45;4.93;;;3.17;;
10061;SDS011;5070;52.382;5.270;2023-07-31T03:13:13;3.95;;;2.60;;
10061;SDS011;5070;52.382;5.270;2023-07-31T03:15:41;8.40;;;2.30;;
10061;SDS011;5070;52.382;5.270;2023-07-31T03:18:10;8.43;;;3.50;;
10061;SDS011;5070;52.382;5.270;2023-07-31T03:20:41;4.18;;;2.92;;
10061;SDS011;5070;52.382;5.270;2023-07-31T03:23:10;10.93;;;3.47;;
10061;SDS011;5070;52.382;5.270;2023-07-31T03:25:41;3.67;;;3.03;;
10061;SDS011;5070;52.382;5.270;2023-07-31T03:28:22;7.10;;;3.97;;
10061;SDS011;5070;52.382;5.270;2023-07-31T03:30:50;5.93;;;2.38;;
10061;SDS011;5070;52.382;5.270;2023-07-31T03:33:18;13.18;;;4.47;;
10061;SDS011;5070;52.382;5.270;2023-07-31T03:35:46;8.23;;;2.20;;
10061;SDS011;5070;52.382;5.270;2023-07-31T03:38:14;3.63;;;3.17;;
10061;SDS011;5070;52.382;5.270;2023-07-31T03:40:44;9.43;;;3.35;;
10061;SDS011;5070;52.382;5.270;2023-07-31T03:43:12;8.60;;;5.32;;
10061;SDS011;5070;52.382;5.270;2023-07-31T03:45:41;3.58;;;3.05;;
10061;SDS011;5070;52.382;5.270;2023-07-31T03:48:10;9.15;;;4.55;;
10061;SDS011;5070;52.382;5.270;2023-07-31T03:50:38;7.20;;;3.42;;
10061;SDS011;5070;52.382;5.270;2023-07-31T03:53:06;5.75;;;2.17;;
10061;SDS011;5070;52.382;5.270;2023-07-31T03:55:34;4.68;;;2.88;;
10061;SDS011;5070;52.382;5.270;2023-07-31T03:58:04;3.38;;;2.40;;
10061;SDS011;5070;52.382;5.270;2023-07-31T04:00:32;3.75;;;2.85;;
10061;SDS011;5070;52.382;5.270;2023-07-31T04:03:00;9.30;;;2.70;;
10061;SDS011;5070;52.382;5.270;2023-07-31T04:05:29;4.50;;;3.15;;
10061;SDS011;5070;52.382;5.270;2023-07-31T04:07:58;10.55;;;3.60;;
10061;SDS011;5070;52.382;5.270;2023-07-31T04:10:26;13.65;;;4.20;;
10061;SDS011;5070;52.382;5.270;2023-07-31T04:12:54;11.98;;;3.15;;
10061;SDS011;5070;52.382;5.270;2023-07-31T04:15:23;4.15;;;3.25;;
10061;SDS011;5070;52.382;5.270;2023-07-31T04:17:51;6.53;;;3.33;;
10061;SDS011;5070;52.382;5.270;2023-07-31T04:20:20;6.38;;;2.92;;
10061;SDS011;5070;52.382;5.270;2023-07-31T04:22:48;7.50;;;4.05;;
10061;SDS011;5070;52.382;5.270;2023-07-31T04:25:16;3.80;;;2.95;;
10061;SDS011;5070;52.382;5.270;2023-07-31T04:27:45;2.53;;;1.98;;
10061;SDS011;5070;52.382;5.270;2023-07-31T04:30:13;4.93;;;3.58;;
10061;SDS011;5070;52.382;5.270;2023-07-31T04:32:42;5.60;;;4.35;;
10061;SDS011;5070;52.382;5.270;2023-07-31T04:35:10;4.38;;;3.88;;
10061;SDS011;5070;52.382;5.270;2023-07-31T04:37:38;7.10;;;4.85;;
10061;SDS011;5070;52.382;5.270;2023-07-31T04:40:06;13.45;;;4.60;;
10061;SDS011;5070;52.382;5.270;2023-07-31T04:42:35;14.75;;;4.82;;
10061;SDS011;5070;52.382;5.270;2023-07-31T04:45:04;10.38;;;3.95;;
10061;SDS011;5070;52.382;5.270;2023-07-31T04:47:36;19.77;;;3.08;;
10061;SDS011;5070;52.382;5.270;2023-07-31T04:50:06;13.38;;;5.55;;
10061;SDS011;5070;52.382;5.270;2023-07-31T04:52:34;4.07;;;3.13;;
10061;SDS011;5070;52.382;5.270;2023-07-31T04:55:03;6.78;;;4.25;;
10061;SDS011;5070;52.382;5.270;2023-07-31T04:57:31;10.07;;;3.92;;
10061;SDS011;5070;52.382;5.270;2023-07-31T04:59:59;6.03;;;5.00;;
10061;SDS011;5070;52.382;5.270;2023-07-31T05:02:27;16.15;;;5.50;;
10061;SDS011;5070;52.382;5.270;2023-07-31T05:04:55;6.00;;;4.43;;
10061;SDS011;5070;52.382;5.270;2023-07-31T05:07:25;3.38;;;2.33;;
10061;SDS011;5070;52.382;5.270;2023-07-31T05:09:53;7.18;;;3.92;;
10061;SDS011;5070;52.382;5.270;2023-07-31T05:12:24;5.75;;;3.85;;
10061;SDS011;5070;52.382;5.270;2023-07-31T05:14:52;7.35;;;3.47;;
10061;SDS011;5070;52.382;5.270;2023-07-31T05:17:20;5.03;;;4.72;;
10061;SDS011;5070;52.382;5.270;2023-07-31T05:19:48;5.05;;;3.80;;
10061;SDS011;5070;52.382;5.270;2023-07-31T05:22:16;6.05;;;3.38;;
10061;SDS011;5070;52.382;5.270;2023-07-31T05:24:45;4.63;;;3.55;;
10061;SDS011;5070;52.382;5.270;2023-07-31T05:27:13;9.10;;;4.30;;
10061;SDS011;5070;52.382;5.270;2023-07-31T05:29:44;8.45;;;2.95;;
10061;SDS011;5070;52.382;5.270;2023-07-31T05:32:12;3.25;;;3.05;;
10061;SDS011;5070;52.382;5.270;2023-07-31T05:34:41;5.03;;;3.35;;
10061;SDS011;5070;52.382;5.270;2023-07-31T05:37:09;11.25;;;3.50;;
10061;SDS011;5070;52.382;5.270;2023-07-31T05:39:37;4.82;;;3.20;;
10061;SDS011;5070;52.382;5.270;2023-07-31T05:42:07;7.95;;;3.63;;
10061;SDS011;5070;52.382;5.270;2023-07-31T05:44:35;8.35;;;3.75;;
10061;SDS011;5070;52.382;5.270;2023-07-31T05:47:03;4.15;;;2.10;;
10061;SDS011;5070;52.382;5.270;2023-07-31T05:49:32;12.05;;;3.42;;
10061;SDS011;5070;52.382;5.270;2023-07-31T05:52:00;3.50;;;2.58;;
10061;SDS011;5070;52.382;5.270;2023-07-31T05:54:28;4.57;;;2.80;;
10061;SDS011;5070;52.382;5.270;2023-07-31T05:56:56;8.75;;;3.20;;
10061;SDS011;5070;52.382;5.270;2023-07-31T05:59:25;7.03;;;2.13;;
10061;SDS011;5070;52.382;5.270;2023-07-31T06:01:54;8.32;;;3.22;;
10061;SDS011;5070;52.382;5.270;2023-07-31T06:04:22;5.38;;;2.28;;
10061;SDS011;5070;52.382;5.270;2023-07-31T06:06:52;3.13;;;2.80;;
10061;SDS011;5070;52.382;5.270;2023-07-31T06:09:20;4.68;;;3.58;;
10061;SDS011;5070;52.382;5.270;2023-07-31T06:11:48;4.15;;;3.15;;
10061;SDS011;5070;52.382;5.270;2023-07-31T06:14:16;3.00;;;2.80;;
10061;SDS011;5070;52.382;5.270;2023-07-31T06:16:45;4.70;;;3.08;;
10061;SDS011;5070;52.382;5.270;2023-07-31T06:19:14;5.63;;;2.97;;
10061;SDS011;5070;52.382;5.270;2023-07-31T06:21:41;6.32;;;3.55;;
10061;SDS011;5070;52.382;5.270;2023-07-31T06:24:10;6.22;;;2.90;;
10061;SDS011;5070;52.382;5.270;2023-07-31T06:26:39;9.00;;;2.65;;
10061;SDS011;5070;52.382;5.270;2023-07-31T06:29:08;5.65;;;3.13;;
10061;SDS011;5070;52.382;5.270;2023-07-31T06:31:36;3.70;;;2.78;;
10061;SDS011;5070;52.382;5.270;2023-07-31T06:34:06;4.25;;;2.22;;
10061;SDS011;5070;52.382;5.270;2023-07-31T06:36:34;5.10;;;3.45;;
10061;SDS011;5070;52.382;5.270;2023-07-31T06:39:03;7.40;;;4.15;;
10061;SDS011;5070;52.382;5.270;2023-07-31T06:41:31;3.35;;;1.90;;
10061;SDS011;5070;52.382;5.270;2023-07-31T06:44:05;3.55;;;2.38;;
10061;SDS011;5070;52.382;5.270;2023-07-31T06:46:33;8.45;;;3.13;;
10061;SDS011;5070;52.382;5.270;2023-07-31T06:49:01;5.40;;;2.53;;
10061;SDS011;5070;52.382;5.270;2023-07-31T06:51:32;6.47;;;2.15;;
10061;SDS011;5070;52.382;5.270;2023-07-31T06:54:04;4.78;;;2.28;;
10061;SDS011;5070;52.382;5.270;2023-07-31T06:56:32;3.10;;;2.20;;
10061;SDS011;5070;52.382;5.270;2023-07-31T06:59:03;3.08;;;2.42;;
10061;SDS011;5070;52.382;5.270;2023-07-31T07:01:31;4.40;;;2.38;;
10061;SDS011;5070;52.382;5.270;2023-07-31T07:03:59;3.10;;;2.03;;
10061;SDS011;5070;52.382;5.270;2023-07-31T07:06:27;3.67;;;2.33;;
10061;SDS011;5070;52.382;5.270;2023-07-31T07:08:57;6.32;;;2.25;;
10061;SDS011;5070;52.382;5.270;2023-07-31T07:11:25;3.67;;;2.88;;
10061;SDS011;5070;52.382;5.270;2023-07-31T07:13:53;2.92;;;1.80;;
10061;SDS011;5070;52.382;5.270;2023-07-31T07:16:21;4.20;;;2.20;;
10061;SDS011;5070;52.382;5.270;2023-07-31T07:18:50;2.85;;;2.40;;
10061;SDS011;5070;52.382;5.270;2023-07-31T07:21:30;5.03;;;1.95;;
10061;SDS011;5070;52.382;5.270;2023-07-31T07:23:59;5.35;;;3.40;;
10061;SDS011;5070;52.382;5.270;2023-07-31T07:26:28;3.20;;;1.40;;
10061;SDS011;5070;52.382;5.270;2023-07-31T07:28:56;5.20;;;2.20;;
10061;SDS011;5070;52.382;5.270;2023-07-31T07:31:27;3.13;;;2.30;;
10061;SDS011;5070;52.382;5.270;2023-07-31T07:33:55;7.55;;;1.73;;
10061;SDS011;5070;52.382;5.270;2023-07-31T07:36:23;3.60;;;1.80;;
10061;SDS011;5070;52.382;5.270;2023-07-31T07:38:51;2.00;;;1.52;;
10061;SDS011;5070;52.382;5.270;2023-07-31T07:41:21;10.75;;;2.95;;
10061;SDS011;5070;52.382;5.270;2023-07-31T07:43:49;2.15;;;1.65;;
10061;SDS011;5070;52.382;5.270;2023-07-31T07:46:17;5.95;;;2.38;;
10061;SDS011;5070;52.382;5.270;2023-07-31T07:48:45;3.30;;;1.40;;
10061;SDS011;5070;52.382;5.270;2023-07-31T07:51:13;3.85;;;2.38;;
10061;SDS011;5070;52.382;5.270;2023-07-31T07:53:42;4.43;;;2.28;;
10061;SDS011;5070;52.382;5.270;2023-07-31T07:56:10;6.30;;;1.55;;
10061;SDS011;5070;52.382;5.270;2023-07-31T07:58:39;3.90;;;1.85;;
10061;SDS011;5070;52.382;5.270;2023-07-31T08:01:07;3.70;;;2.25;;
10061;SDS011;5070;52.382;5.270;2023-07-31T08:03:35;5.32;;;2.42;;
10061;SDS011;5070;52.382;5.270;2023-07-31T08:06:03;2.92;;;2.00;;
10061;SDS011;5070;52.382;5.270;2023-07-31T08:08:31;2.45;;;1.58;;
10061;SDS011;5070;52.382;5.270;2023-07-31T08:11:00;6.43;;;2.05;;
10061;SDS011;5070;52.382;5.270;2023-07-31T08:13:28;3.75;;;2.13;;
10061;SDS011;5070;52.382;5.270;2023-07-31T08:15:57;4.28;;;1.55;;
10061;SDS011;5070;52.382;5.270;2023-07-31T08:18:25;4.30;;;1.35;;
10061;SDS011;5070;52.382;5.270;2023-07-31T08:20:53;5.93;;;2.05;;
10061;SDS011;5070;52.382;5.270;2023-07-31T08:23:21;9.25;;;3.70;;
10061;SDS011;5070;52.382;5.270;2023-07-31T08:25:49;4.15;;;1.50;;
10061;SDS011;5070;52.382;5.270;2023-07-31T08:28:17;2.03;;;1.60;;
10061;SDS011;5070;52.382;5.270;2023-07-31T08:30:46;2.60;;;1.63;;
10061;SDS011;5070;52.382;5.270;2023-07-31T08:33:15;3.88;;;1.55;;
10061;SDS011;5070;52.382;5.270;2023-07-31T08:35:43;6.95;;;1.85;;
10061;SDS011;5070;52.382;5.270;2023-07-31T08:38:11;3.05;;;1.80;;
10061;SDS011;5070;52.382;5.270;2023-07-31T08:40:39;2.00;;;1.25;;
10061;SDS011;5070;52.382;5.270;2023-07-31T08:43:08;2.40;;;1.60;;
10061;SDS011;5070;52.382;5.270;2023-07-31T08:45:36;1.80;;;0.93;;
10061;SDS011;5070;52.382;5.270;2023-07-31T08:48:06;2.80;;;2.20;;
10061;SDS011;5070;52.382;5.270;2023-07-31T08:50:35;5.43;;;3.60;;
10061;SDS011;5070;52.382;5.270;2023-07-31T08:53:04;2.00;;;1.30;;
10061;SDS011;5070;52.382;5.270;2023-07-31T08:55:33;3.53;;;1.88;;
10061;SDS011;5070;52.382;5.270;2023-07-31T08:58:01;2.10;;;1.67;;
10061;SDS011;5070;52.382;5.270;2023-07-31T09:00:31;2.25;;;1.38;;
10061;SDS011;5070;52.382;5.270;2023-07-31T09:03:01;2.50;;;1.52;;
10061;SDS011;5070;52.382;5.270;2023-07-31T09:05:31;3.85;;;1.73;;
10061;SDS011;5070;52.382;5.270;2023-07-31T09:08:01;2.97;;;1.75;;
10061;SDS011;5070;52.382;5.270;2023-07-31T09:10:31;3.08;;;1.65;;
10061;SDS011;5070;52.382;5.270;2023-07-31T09:12:59;4.70;;;1.38;;
10061;SDS011;5070;52.382;5.270;2023-07-31T09:15:28;3.22;;;1.60;;
10061;SDS011;5070;52.382;5.270;2023-07-31T09:18:04;5.15;;;1.10;;
10061;SDS011;5070;52.382;5.270;2023-07-31T09:20:35;3.35;;;2.00;;
10061;SDS011;5070;52.382;5.270;2023-07-31T09:23:08;4.97;;;1.58;;
10061;SDS011;5070;52.382;5.270;2023-07-31T09:25:38;3.33;;;1.52;;
10061;SDS011;5070;52.382;5.270;2023-07-31T09:28:07;2.30;;;1.67;;
10061;SDS011;5070;52.382;5.270;2023-07-31T09:30:43;7.72;;;2.83;;
10061;SDS011;5070;52.382;5.270;2023-07-31T09:33:14;2.20;;;1.23;;
10061;SDS011;5070;52.382;5.270;2023-07-31T09:35:43;2.10;;;1.10;;
10061;SDS011;5070;52.382;5.270;2023-07-31T09:38:13;2.22;;;1.10;;
10061;SDS011;5070;52.382;5.270;2023-07-31T09:40:42;1.85;;;1.33;;
10061;SDS011;5070;52.382;5.270;2023-07-31T09:43:12;3.30;;;2.10;;
10061;SDS011;5070;52.382;5.270;2023-07-31T09:45:45;2.30;;;1.15;;
10061;SDS011;5070;52.382;5.270;2023-07-31T09:48:14;10.95;;;2.17;;
10061;SDS011;5070;52.382;5.270;2023-07-31T09:50:43;4.72;;;1.60;;
10061;SDS011;5070;52.382;5.270;2023-07-31T09:53:13;5.25;;;1.45;;
10061;SDS011;5070;52.382;5.270;2023-07-31T09:55:43;1.90;;;1.00;;
10061;SDS011;5070;52.382;5.270;2023-07-31T09:58:12;4.07;;;1.40;;
10061;SDS011;5070;52.382;5.270;2023-07-31T10:00:41;3.85;;;1.70;;
10061;SDS011;5070;52.382;5.270;2023-07-31T10:03:09;1.75;;;0.95;;
10061;SDS011;5070;52.382;5.270;2023-07-31T10:05:39;2.97;;;1.33;;
10061;SDS011;5070;52.382;5.270;2023-07-31T10:08:10;2.03;;;1.13;;
10061;SDS011;5070;52.382;5.270;2023-07-31T10:10:42;3.08;;;0.90;;
10061;SDS011;5070;52.382;5.270;2023-07-31T10:13:12;10.80;;;1.33;;
10061;SDS011;5070;52.382;5.270;2023-07-31T10:15:41;3.85;;;1.55;;
10061;SDS011;5070;52.382;5.270;2023-07-31T10:18:10;3.17;;;1.40;;
10061;SDS011;5070;52.382;5.270;2023-07-31T10:20:39;2.20;;;1.15;;
10061;SDS011;5070;52.382;5.270;2023-07-31T10:23:08;2.50;;;1.30;;
10061;SDS011;5070;52.382;5.270;2023-07-31T10:25:40;5.40;;;1.35;;
10061;SDS011;5070;52.382;5.270;2023-07-31T10:28:10;3.00;;;2.15;;
10061;SDS011;5070;52.382;5.270;2023-07-31T10:30:39;1.90;;;1.02;;
10061;SDS011;5070;52.382;5.270;2023-07-31T10:33:08;2.47;;;1.60;;
10061;SDS011;5070;52.382;5.270;2023-07-31T10:35:36;5.53;;;1.20;;
10061;SDS011;5070;52.382;5.270;2023-07-31T10:38:10;3.17;;;1.50;;
10061;SDS011;5070;52.382;5.270;2023-07-31T10:40:39;2.50;;;1.27;;
10061;SDS011;5070;52.382;5.270;2023-07-31T10:43:08;2.97;;;1.27;;
10061;SDS011;5070;52.382;5.270;2023-07-31T10:45:39;2.83;;;1.63;;
10061;SDS011;5070;52.382;5.270;2023-07-31T10:48:12;2.33;;;1.25;;
10061;SDS011;5070;52.382;5.270;2023-07-31T10:50:46;2.72;;;1.45;;
10061;SDS011;5070;52.382;5.270;2023-07-31T10:53:22;3.05;;;1.98;;
10061;SDS011;5070;52.382;5.270;2023-07-31T10:55:51;2.30;;;1.48;;
10061;SDS011;5070;52.382;5.270;2023-07-31T10:58:20;3.17;;;1.50;;
10061;SDS011;5070;52.382;5.270;2023-07-31T11:00:51;2.20;;;1.08;;
10061;SDS011;5070;52.382;5.270;2023-07-31T11:03:25;2.03;;;1.30;;
10061;SDS011;5070;52.382;5.270;2023-07-31T11:05:59;5.47;;;1.90;;
10061;SDS011;5070;52.382;5.270;2023-07-31T11:08:30;3.88;;;1.20;;
10061;SDS011;5070;52.382;5.270;2023-07-31T11:11:06;2.28;;;1.10;;
10061;SDS011;5070;52.382;5.270;2023-07-31T11:13:39;3.53;;;1.30;;
10061;SDS011;5070;52.382;5.270;2023-07-31T11:16:10;6.10;;;2.38;;
10061;SDS011;5070;52.382;5.270;2023-07-31T11:18:39;2.00;;;1.17;;
10061;SDS011;5070;52.382;5.270;2023-07-31T11:21:11;4.47;;;1.92;;
10061;SDS011;5070;52.382;5.270;2023-07-31T11:23:40;6.60;;;1.33;;
10061;SDS011;5070;52.382;5.270;2023-07-31T11:26:09;1.80;;;1.00;;
10061;SDS011;5070;52.382;5.270;2023-07-31T11:28:39;3.38;;;1.52;;
10061;SDS011;5070;52.382;5.270;2023-07-31T11:31:10;2.60;;;1.15;;
10061;SDS011;5070;52.382;5.270;2023-07-31T11:33:38;12.40;;;1.85;;
10061;SDS011;5070;52.382;5.270;2023-07-31T11:36:09;4.70;;;2.20;;
10061;SDS011;5070;52.382;5.270;2023-07-31T11:38:42;3.72;;;1.20;;
10061;SDS011;5070;52.382;5.270;2023-07-31T11:41:10;2.65;;;1.45;;
10061;SDS011;5070;52.382;5.270;2023-07-31T11:43:40;2.00;;;1.30;;
10061;SDS011;5070;52.382;5.270;2023-07-31T11:46:09;2.25;;;1.42;;
10061;SDS011;5070;52.382;5.270;2023-07-31T11:48:39;2.33;;;1.80;;
10061;SDS011;5070;52.382;5.270;2023-07-31T11:51:08;2.78;;;1.30;;
10061;SDS011;5070;52.382;5.270;2023-07-31T11:53:38;4.43;;;1.40;;
10061;SDS011;5070;52.382;5.270;2023-07-31T11:56:10;2.90;;;1.95;;
10061;SDS011;5070;52.382;5.270;2023-07-31T11:58:41;2.08;;;0.98;;
10061;SDS011;5070;52.382;5.270;2023-07-31T12:01:13;1.80;;;0.90;;
10061;SDS011;5070;52.382;5.270;2023-07-31T12:03:44;1.98;;;1.17;;
10061;SDS011;5070;52.382;5.270;2023-07-31T12:06:13;2.88;;;1.52;;
10061;SDS011;5070;52.382;5.270;2023-07-31T12:08:41;3.75;;;1.88;;
10061;SDS011;5070;52.382;5.270;2023-07-31T12:11:09;2.70;;;1.40;;
10061;SDS011;5070;52.382;5.270;2023-07-31T12:13:37;6.65;;;1.23;;
10061;SDS011;5070;52.382;5.270;2023-07-31T12:16:05;2.40;;;1.40;;
10061;SDS011;5070;52.382;5.270;2023-07-31T12:18:35;8.02;;;2.03;;
10061;SDS011;5070;52.382;5.270;2023-07-31T12:21:05;1.77;;;1.05;;
10061;SDS011;5070;52.382;5.270;2023-07-31T12:23:35;5.78;;;1.73;;
10061;SDS011;5070;52.382;5.270;2023-07-31T12:26:04;1.95;;;1.08;;
10061;SDS011;5070;52.382;5.270;2023-07-31T12:28:36;4.40;;;1.90;;
10061;SDS011;5070;52.382;5.270;2023-07-31T12:31:05;3.92;;;2.55;;
10061;SDS011;5070;52.382;5.270;2023-07-31T12:33:35;3.15;;;1.45;;
10061;SDS011;5070;52.382;5.270;2023-07-31T12:36:07;5.70;;;1.20;;
10061;SDS011;5070;52.382;5.270;2023-07-31T12:38:36;2.85;;;1.75;;
10061;SDS011;5070;52.382;5.270;2023-07-31T12:41:04;4.65;;;1.98;;
10061;SDS011;5070;52.382;5.270;2023-07-31T12:43:33;3.13;;;1.63;;
10061;SDS011;5070;52.382;5.270;2023-07-31T12:46:02;3.35;;;2.05;;
10061;SDS011;5070;52.382;5.270;2023-07-31T12:48:31;5.15;;;1.90;;
10061;SDS011;5070;52.382;5.270;2023-07-31T12:51:01;2.40;;;2.13;;
10061;SDS011;5070;52.382;5.270;2023-07-31T12:53:29;9.07;;;1.75;;
10061;SDS011;5070;52.382;5.270;2023-07-31T12:55:57;3.83;;;1.88;;
10061;SDS011;5070;52.382;5.270;2023-07-31T12:58:27;2.70;;;1.85;;
10061;SDS011;5070;52.382;5.270;2023-07-31T13:00:57;2.60;;;1.95;;
10061;SDS011;5070;52.382;5.270;2023-07-31T13:03:26;2.63;;;1.63;;
10061;SDS011;5070;52.382;5.270;2023-07-31T13:05:54;3.53;;;2.13;;
10061;SDS011;5070;52.382;5.270;2023-07-31T13:08:24;6.20;;;1.35;;
10061;SDS011;5070;52.382;5.270;2023-07-31T13:10:52;3.45;;;1.50;;
10061;SDS011;5070;52.382;5.270;2023-07-31T13:13:20;7.47;;;2.15;;
10061;SDS011;5070;52.382;5.270;2023-07-31T13:15:48;2.60;;;1.50;;
10061;SDS011;5070;52.382;5.270;2023-07-31T13:18:16;8.93;;;1.90;;
10061;SDS011;5070;52.382;5.270;2023-07-31T13:20:45;3.72;;;2.08;;
10061;SDS011;5070;52.382;5.270;2023-07-31T13:23:13;5.00;;;2.10;;
10061;SDS011;5070;52.382;5.270;2023-07-31T13:25:42;4.82;;;2.83;;
10061;SDS011;5070;52.382;5.270;2023-07-31T13:28:10;7.65;;;1.83;;
10061;SDS011;5070;52.382;5.270;2023-07-31T13:30:38;6.22;;;2.20;;
10061;SDS011;5070;52.382;5.270;2023-07-31T13:33:06;6.00;;;3.13;;
10061;SDS011;5070;52.382;5.270;2023-07-31T13:35:50;2.50;;;0.88;;
10061;SDS011;5070;52.382;5.270;2023-07-31T13:38:18;2.63;;;1.65;;
10061;SDS011;5070;52.382;5.270;2023-07-31T13:40:48;8.82;;;1.77;;
10061;SDS011;5070;52.382;5.270;2023-07-31T13:43:16;3.67;;;1.70;;
10061;SDS011;5070;52.382;5.270;2023-07-31T13:45:44;2.10;;;1.30;;
10061;SDS011;5070;52.382;5.270;2023-07-31T13:48:12;2.38;;;1.48;;
10061;SDS011;5070;52.382;5.270;2023-07-31T13:50:40;4.13;;;2.55;;
10061;SDS011;5070;52.382;5.270;2023-07-31T13:53:08;4.40;;;2.05;;
10061;SDS011;5070;52.382;5.270;2023-07-31T13:55:36;2.95;;;2.17;;
10061;SDS011;5070;52.382;5.270;2023-07-31T13:58:06;2.60;;;1.20;;
10061;SDS011;5070;52.382;5.270;2023-07-31T14:00:34;1.80;;;1.20;;
10061;SDS011;5070;52.382;5.270;2023-07-31T14:03:02;2.88;;;1.85;;
10061;SDS011;5070;52.382;5.270;2023-07-31T14:05:30;3.28;;;1.23;;
10061;SDS011;5070;52.382;5.270;2023-07-31T14:07:58;2.80;;;1.65;;
10061;SDS011;5070;52.382;5.270;2023-07-31T14:10:27;2.80;;;1.58;;
10061;SDS011;5070;52.382;5.270;2023-07-31T14:12:55;3.47;;;1.63;;
10061;SDS011;5070;52.382;5.270;2023-07-31T14:15:24;2.63;;;1.75;;
10061;SDS011;5070;52.382;5.270;2023-07-31T14:17:52;4.93;;;2.17;;
10061;SDS011;5070;52.382;5.270;2023-07-31T14:20:23;1.90;;;1.20;;
10061;SDS011;5070;52.382;5.270;2023-07-31T14:22:51;2.67;;;1.63;;
10061;SDS011;5070;52.382;5.270;2023-07-31T14:25:20;2.10;;;1.90;;
10061;SDS011;5070;52.382;5.270;2023-07-31T14:27:48;4.07;;;1.20;;
10061;SDS011;5070;52.382;5.270;2023-07-31T14:30:16;4.22;;;2.15;;
10061;SDS011;5070;52.382;5.270;2023-07-31T14:32:46;6.35;;;1.48;;
10061;SDS011;5070;52.382;5.270;2023-07-31T14:35:14;2.65;;;1.65;;
10061;SDS011;5070;52.382;5.270;2023-07-31T14:37:42;6.43;;;1.60;;
10061;SDS011;5070;52.382;5.270;2023-07-31T14:40:11;2.63;;;1.75;;
10061;SDS011;5070;52.382;5.270;2023-07-31T14:42:40;3.22;;;2.15;;
10061;SDS011;5070;52.382;5.270;2023-07-31T14:45:09;4.38;;;2.08;;
10061;SDS011;5070;52.382;5.270;2023-07-31T14:47:37;3.72;;;2.63;;
10061;SDS011;5070;52.382;5.270;2023-07-31T14:50:07;7.97;;;1.85;;
10061;SDS011;5070;52.382;5.270;2023-07-31T14:52:36;10.88;;;1.98;;
10061;SDS011;5070;52.382;5.270;2023-07-31T14:55:04;4.30;;;2.90;;
10061;SDS011;5070;52.382;5.270;2023-07-31T14:57:33;2.22;;;1.17;;
10061;SDS011;5070;52.382;5.270;2023-07-31T15:00:01;4.80;;;2.13;;
10061;SDS011;5070;52.382;5.270;2023-07-31T15:02:33;3.80;;;1.45;;
10061;SDS011;5070;52.382;5.270;2023-07-31T15:05:02;4.47;;;1.40;;
10061;SDS011;5070;52.382;5.270;2023-07-31T15:07:31;3.05;;;1.50;;
10061;SDS011;5070;52.382;5.270;2023-07-31T15:10:00;4.20;;;1.45;;
10061;SDS011;5070;52.382;5.270;2023-07-31T15:12:28;5.88;;;1.60;;